sensor_id;sensor_type;location;lat;lon;timestamp;temperature;humidity
6609;DHT22;61468;48.79282455;9.06262200;2022-07-23T00:01:01;26.40;1.00
6609;DHT22;61468;48.79282455;9.06262200;2022-07-23T00:03:45;26.40;1.00
6609;DHT22;61468;48.79282455;9.06262200;2022-07-23T00:06:29;26.40;1.00
6609;DHT22;61468;48.79282455;9.06262200;2022-07-23T00:09:13;26.40;1.00
6609;DHT22;61468;48.79282455;9.06262200;2022-07-23T00:11:57;26.40;1.00
6609;DHT22;61468;48.79282455;9.06262200;2022-07-23T00:14:41;26.40;1.00
6609;DHT22;61468;48.79282455;9.06262200;2022-07-23T00:17:25;26.30;1.00
6609;DHT22;61468;48.79282455;9.06262200;2022-07-23T00:20:09;26.30;1.00
6609;DHT22;61468;48.79282455;9.06262200;2022-07-23T00:22:54;26.30;1.00
6609;DHT22;61468;48.79282455;9.06262200;2022-07-23T00:25:38;26.30;1.00
6609;DHT22;61468;48.79282455;9.06262200;2022-07-23T00:28:22;26.30;1.00
6609;DHT22;61468;48.79282455;9.06262200;2022-07-23T00:31:07;26.30;1.00
6609;DHT22;61468;48.79282455;9.06262200;2022-07-23T00:33:51;26.30;1.00
6609;DHT22;61468;48.79282455;9.06262200;2022-07-23T00:36:36;26.30;1.00
6609;DHT22;61468;48.79282455;9.06262200;2022-07-23T00:39:20;26.30;1.00
6609;DHT22;61468;48.79282455;9.06262200;2022-07-23T00:42:07;26.30;1.00
6609;DHT22;61468;48.79282455;9.06262200;2022-07-23T00:44:51;26.20;1.00
6609;DHT22;61468;48.79282455;9.06262200;2022-07-23T00:47:36;26.10;1.00
6609;DHT22;61468;48.79282455;9.06262200;2022-07-23T00:50:20;26.10;1.00
6609;DHT22;61468;48.79282455;9.06262200;2022-07-23T00:53:05;26.10;1.00
6609;DHT22;61468;48.79282455;9.06262200;2022-07-23T00:55:49;26.10;1.00
6609;DHT22;61468;48.79282455;9.06262200;2022-07-23T00:58:35;26.10;1.00
6609;DHT22;61468;48.79282455;9.06262200;2022-07-23T01:01:19;26.00;1.00
6609;DHT22;61468;48.79282455;9.06262200;2022-07-23T01:04:03;26.00;1.00
6609;DHT22;61468;48.79282455;9.06262200;2022-07-23T01:06:47;26.00;1.00
6609;DHT22;61468;48.79282455;9.06262200;2022-07-23T01:09:31;26.00;1.00
6609;DHT22;61468;48.79282455;9.06262200;2022-07-23T01:12:15;26.00;1.00
6609;DHT22;61468;48.79282455;9.06262200;2022-07-23T01:15:00;26.00;1.00
6609;DHT22;61468;48.79282455;9.06262200;2022-07-23T01:17:44;26.00;1.00
6609;DHT22;61468;48.79282455;9.06262200;2022-07-23T01:20:28;25.90;1.00
6609;DHT22;61468;48.79282455;9.06262200;2022-07-23T01:23:13;25.90;1.00
6609;DHT22;61468;48.79282455;9.06262200;2022-07-23T01:25:57;25.90;1.00
6609;DHT22;61468;48.79282455;9.06262200;2022-07-23T01:28:41;25.90;1.00
6609;DHT22;61468;48.79282455;9.06262200;2022-07-23T01:31:26;25.90;1.00
6609;DHT22;61468;48.79282455;9.06262200;2022-07-23T01:34:10;25.80;1.00
6609;DHT22;61468;48.79282455;9.06262200;2022-07-23T01:36:54;25.80;1.00
6609;DHT22;61468;48.79282455;9.06262200;2022-07-23T01:39:39;25.80;1.00
6609;DHT22;61468;48.79282455;9.06262200;2022-07-23T01:42:24;25.70;1.00
6609;DHT22;61468;48.79282455;9.06262200;2022-07-23T01:45:08;25.60;1.00
6609;DHT22;61468;48.79282455;9.06262200;2022-07-23T01:47:52;25.70;1.00
6609;DHT22;61468;48.79282455;9.06262200;2022-07-23T01:50:37;25.70;1.00
6609;DHT22;61468;48.79282455;9.06262200;2022-07-23T01:53:21;25.80;1.00
6609;DHT22;61468;48.79282455;9.06262200;2022-07-23T01:56:05;25.70;1.00
6609;DHT22;61468;48.79282455;9.06262200;2022-07-23T01:58:49;25.80;1.00
6609;DHT22;61468;48.79282455;9.06262200;2022-07-23T02:01:33;25.80;1.00
6609;DHT22;61468;48.79282455;9.06262200;2022-07-23T02:04:21;25.80;1.00
6609;DHT22;61468;48.79282455;9.06262200;2022-07-23T02:07:06;25.80;1.00
6609;DHT22;61468;48.79282455;9.06262200;2022-07-23T02:09:50;25.80;1.00
6609;DHT22;61468;48.79282455;9.06262200;2022-07-23T02:12:34;25.80;1.00
6609;DHT22;61468;48.79282455;9.06262200;2022-07-23T02:15:20;25.80;1.00
6609;DHT22;61468;48.79282455;9.06262200;2022-07-23T02:18:04;25.80;1.00
6609;DHT22;61468;48.79282455;9.06262200;2022-07-23T02:20:48;25.80;1.00
6609;DHT22;61468;48.79282455;9.06262200;2022-07-23T02:23:32;25.80;1.00
6609;DHT22;61468;48.79282455;9.06262200;2022-07-23T02:26:16;25.80;1.00
6609;DHT22;61468;48.79282455;9.06262200;2022-07-23T02:29:02;25.90;1.00
6609;DHT22;61468;48.79282455;9.06262200;2022-07-23T02:31:46;25.90;1.00
6609;DHT22;61468;48.79282455;9.06262200;2022-07-23T02:34:30;25.80;1.00
6609;DHT22;61468;48.79282455;9.06262200;2022-07-23T02:37:14;25.80;1.00
6609;DHT22;61468;48.79282455;9.06262200;2022-07-23T02:39:58;25.80;1.00
6609;DHT22;61468;48.79282455;9.06262200;2022-07-23T02:42:42;25.80;1.00
6609;DHT22;61468;48.79282455;9.06262200;2022-07-23T02:45:26;25.70;1.00
6609;DHT22;61468;48.79282455;9.06262200;2022-07-23T02:48:11;25.70;1.00
6609;DHT22;61468;48.79282455;9.06262200;2022-07-23T02:50:56;25.70;1.00
6609;DHT22;61468;48.79282455;9.06262200;2022-07-23T02:53:40;25.60;1.00
6609;DHT22;61468;48.79282455;9.06262200;2022-07-23T02:56:24;25.60;1.00
6609;DHT22;61468;48.79282455;9.06262200;2022-07-23T02:59:09;25.50;1.00
6609;DHT22;61468;48.79282455;9.06262200;2022-07-23T03:01:53;25.50;1.00
6609;DHT22;61468;48.79282455;9.06262200;2022-07-23T03:04:37;25.50;1.00
6609;DHT22;61468;48.79282455;9.06262200;2022-07-23T03:07:47;25.50;1.00
6609;DHT22;61468;48.79282455;9.06262200;2022-07-23T03:10:31;25.50;1.00
6609;DHT22;61468;48.79282455;9.06262200;2022-07-23T03:13:15;25.50;1.00
6609;DHT22;61468;48.79282455;9.06262200;2022-07-23T03:15:59;25.40;1.00
6609;DHT22;61468;48.79282455;9.06262200;2022-07-23T03:18:43;25.40;1.00
6609;DHT22;61468;48.79282455;9.06262200;2022-07-23T03:21:28;25.30;1.00
6609;DHT22;61468;48.79282455;9.06262200;2022-07-23T03:24:12;25.30;1.00
6609;DHT22;61468;48.79282455;9.06262200;2022-07-23T03:26:56;25.40;1.00
6609;DHT22;61468;48.79282455;9.06262200;2022-07-23T03:29:40;25.40;1.00
6609;DHT22;61468;48.79282455;9.06262200;2022-07-23T03:32:24;25.30;1.00
6609;DHT22;61468;48.79282455;9.06262200;2022-07-23T03:35:09;25.20;1.00
6609;DHT22;61468;48.79282455;9.06262200;2022-07-23T03:37:53;25.20;1.00
6609;DHT22;61468;48.79282455;9.06262200;2022-07-23T03:40:37;25.20;1.00
6609;DHT22;61468;48.79282455;9.06262200;2022-07-23T03:43:21;25.20;1.00
6609;DHT22;61468;48.79282455;9.06262200;2022-07-23T03:46:05;25.30;1.00
6609;DHT22;61468;48.79282455;9.06262200;2022-07-23T03:48:49;25.30;1.00
6609;DHT22;61468;48.79282455;9.06262200;2022-07-23T03:51:33;25.30;1.00
6609;DHT22;61468;48.79282455;9.06262200;2022-07-23T03:54:17;25.30;1.00
6609;DHT22;61468;48.79282455;9.06262200;2022-07-23T03:57:01;25.30;1.00
6609;DHT22;61468;48.79282455;9.06262200;2022-07-23T03:59:45;25.30;1.00
6609;DHT22;61468;48.79282455;9.06262200;2022-07-23T04:02:29;25.30;1.00
6609;DHT22;61468;48.79282455;9.06262200;2022-07-23T04:05:13;25.30;1.00
6609;DHT22;61468;48.79282455;9.06262200;2022-07-23T04:07:58;25.30;1.00
6609;DHT22;61468;48.79282455;9.06262200;2022-07-23T04:10:42;25.30;1.00
6609;DHT22;61468;48.79282455;9.06262200;2022-07-23T04:13:27;25.40;1.00
6609;DHT22;61468;48.79282455;9.06262200;2022-07-23T04:16:11;25.40;1.00
6609;DHT22;61468;48.79282455;9.06262200;2022-07-23T04:18:55;25.40;1.00
6609;DHT22;61468;48.79282455;9.06262200;2022-07-23T04:21:39;25.40;1.00
6609;DHT22;61468;48.79282455;9.06262200;2022-07-23T04:24:23;25.40;1.00
6609;DHT22;61468;48.79282455;9.06262200;2022-07-23T04:27:07;25.40;1.00
6609;DHT22;61468;48.79282455;9.06262200;2022-07-23T04:29:51;25.40;1.00
6609;DHT22;61468;48.79282455;9.06262200;2022-07-23T04:32:35;25.30;1.00
6609;DHT22;61468;48.79282455;9.06262200;2022-07-23T04:35:19;25.20;1.00
6609;DHT22;61468;48.79282455;9.06262200;2022-07-23T04:38:04;25.00;1.00
6609;DHT22;61468;48.79282455;9.06262200;2022-07-23T04:40:48;24.90;1.00
6609;DHT22;61468;48.79282455;9.06262200;2022-07-23T04:43:32;24.80;1.00
6609;DHT22;61468;48.79282455;9.06262200;2022-07-23T04:46:16;24.80;1.00
6609;DHT22;61468;48.79282455;9.06262200;2022-07-23T04:49:00;24.80;1.00
6609;DHT22;61468;48.79282455;9.06262200;2022-07-23T04:51:43;24.90;1.00
6609;DHT22;61468;48.79282455;9.06262200;2022-07-23T04:54:27;24.90;1.00
6609;DHT22;61468;48.79282455;9.06262200;2022-07-23T04:57:11;24.90;1.00
6609;DHT22;61468;48.79282455;9.06262200;2022-07-23T04:59:55;24.80;1.00
6609;DHT22;61468;48.79282455;9.06262200;2022-07-23T05:02:39;24.80;1.00
6609;DHT22;61468;48.79282455;9.06262200;2022-07-23T05:05:24;24.80;1.00
6609;DHT22;61468;48.79282455;9.06262200;2022-07-23T05:08:08;24.80;1.00
6609;DHT22;61468;48.79282455;9.06262200;2022-07-23T05:10:52;24.90;1.00
6609;DHT22;61468;48.79282455;9.06262200;2022-07-23T05:13:36;24.90;1.00
6609;DHT22;61468;48.79282455;9.06262200;2022-07-23T05:16:20;24.90;1.00
6609;DHT22;61468;48.79282455;9.06262200;2022-07-23T05:19:04;24.90;1.00
6609;DHT22;61468;48.79282455;9.06262200;2022-07-23T05:21:48;24.90;1.00
6609;DHT22;61468;48.79282455;9.06262200;2022-07-23T05:24:32;24.90;1.00
6609;DHT22;61468;48.79282455;9.06262200;2022-07-23T05:27:17;25.00;1.00
6609;DHT22;61468;48.79282455;9.06262200;2022-07-23T05:30:01;25.00;1.00
6609;DHT22;61468;48.79282455;9.06262200;2022-07-23T05:32:44;25.10;1.00
6609;DHT22;61468;48.79282455;9.06262200;2022-07-23T05:35:28;25.20;1.00
6609;DHT22;61468;48.79282455;9.06262200;2022-07-23T05:38:12;25.30;1.00
6609;DHT22;61468;48.79282455;9.06262200;2022-07-23T05:40:56;25.30;1.00
6609;DHT22;61468;48.79282455;9.06262200;2022-07-23T05:43:41;25.40;1.00
6609;DHT22;61468;48.79282455;9.06262200;2022-07-23T05:46:24;25.40;1.00
6609;DHT22;61468;48.79282455;9.06262200;2022-07-23T05:49:09;25.50;1.00
6609;DHT22;61468;48.79282455;9.06262200;2022-07-23T05:51:53;25.40;1.00
6609;DHT22;61468;48.79282455;9.06262200;2022-07-23T05:54:37;25.50;1.00
6609;DHT22;61468;48.79282455;9.06262200;2022-07-23T05:57:21;25.50;1.00
6609;DHT22;61468;48.79282455;9.06262200;2022-07-23T06:00:07;25.50;1.00
6609;DHT22;61468;48.79282455;9.06262200;2022-07-23T06:02:51;25.50;1.00
6609;DHT22;61468;48.79282455;9.06262200;2022-07-23T06:05:35;25.60;1.00
6609;DHT22;61468;48.79282455;9.06262200;2022-07-23T06:08:19;25.60;1.00
6609;DHT22;61468;48.79282455;9.06262200;2022-07-23T06:11:03;25.60;1.00
6609;DHT22;61468;48.79282455;9.06262200;2022-07-23T06:13:47;25.60;1.00
6609;DHT22;61468;48.79282455;9.06262200;2022-07-23T06:16:32;25.60;1.00
6609;DHT22;61468;48.79282455;9.06262200;2022-07-23T06:19:16;25.60;1.00
6609;DHT22;61468;48.79282455;9.06262200;2022-07-23T06:22:00;25.70;1.00
6609;DHT22;61468;48.79282455;9.06262200;2022-07-23T06:24:44;25.60;1.00
6609;DHT22;61468;48.79282455;9.06262200;2022-07-23T06:27:28;25.60;1.00
6609;DHT22;61468;48.79282455;9.06262200;2022-07-23T06:30:12;25.70;1.00
6609;DHT22;61468;48.79282455;9.06262200;2022-07-23T06:32:56;25.70;1.00
6609;DHT22;61468;48.79282455;9.06262200;2022-07-23T06:35:40;25.60;1.00
6609;DHT22;61468;48.79282455;9.06262200;2022-07-23T06:38:25;25.60;1.00
6609;DHT22;61468;48.79282455;9.06262200;2022-07-23T06:41:09;25.60;1.00
6609;DHT22;61468;48.79282455;9.06262200;2022-07-23T06:43:52;25.60;1.00
6609;DHT22;61468;48.79282455;9.06262200;2022-07-23T06:46:36;25.60;1.00
6609;DHT22;61468;48.79282455;9.06262200;2022-07-23T06:49:20;25.50;1.00
6609;DHT22;61468;48.79282455;9.06262200;2022-07-23T06:52:04;25.40;1.00
6609;DHT22;61468;48.79282455;9.06262200;2022-07-23T06:54:49;25.40;1.00
6609;DHT22;61468;48.79282455;9.06262200;2022-07-23T06:57:33;25.40;1.00
6609;DHT22;61468;48.79282455;9.06262200;2022-07-23T07:00:17;25.40;1.00
6609;DHT22;61468;48.79282455;9.06262200;2022-07-23T07:03:01;25.30;1.00
6609;DHT22;61468;48.79282455;9.06262200;2022-07-23T07:05:45;25.30;1.00
6609;DHT22;61468;48.79282455;9.06262200;2022-07-23T07:08:30;25.30;1.00
6609;DHT22;61468;48.79282455;9.06262200;2022-07-23T07:11:14;25.30;1.00
6609;DHT22;61468;48.79282455;9.06262200;2022-07-23T07:13:58;25.30;1.00
6609;DHT22;61468;48.79282455;9.06262200;2022-07-23T07:16:42;25.30;1.00
6609;DHT22;61468;48.79282455;9.06262200;2022-07-23T07:19:26;25.30;1.00
6609;DHT22;61468;48.79282455;9.06262200;2022-07-23T07:22:10;25.30;1.00
6609;DHT22;61468;48.79282455;9.06262200;2022-07-23T07:24:54;25.30;1.00
6609;DHT22;61468;48.79282455;9.06262200;2022-07-23T07:27:39;25.30;1.00
6609;DHT22;61468;48.79282455;9.06262200;2022-07-23T07:30:23;25.20;18.30
6609;DHT22;61468;48.79282455;9.06262200;2022-07-23T07:33:07;25.20;50.50
6609;DHT22;61468;48.79282455;9.06262200;2022-07-23T07:35:51;25.20;99.90
6609;DHT22;61468;48.79282455;9.06262200;2022-07-23T07:38:35;25.20;99.90
6609;DHT22;61468;48.79282455;9.06262200;2022-07-23T07:41:19;25.20;99.90
6609;DHT22;61468;48.79282455;9.06262200;2022-07-23T07:44:06;25.30;99.90
6609;DHT22;61468;48.79282455;9.06262200;2022-07-23T07:46:50;25.30;99.90
6609;DHT22;61468;48.79282455;9.06262200;2022-07-23T07:49:34;25.30;99.90
6609;DHT22;61468;48.79282455;9.06262200;2022-07-23T07:52:19;25.20;99.90
6609;DHT22;61468;48.79282455;9.06262200;2022-07-23T07:55:04;25.30;99.90
6609;DHT22;61468;48.79282455;9.06262200;2022-07-23T07:57:48;25.30;99.90
6609;DHT22;61468;48.79282455;9.06262200;2022-07-23T08:00:32;25.30;99.90
6609;DHT22;61468;48.79282455;9.06262200;2022-07-23T08:03:17;25.30;99.90
6609;DHT22;61468;48.79282455;9.06262200;2022-07-23T08:06:01;25.30;99.90
6609;DHT22;61468;48.79282455;9.06262200;2022-07-23T08:08:45;25.30;99.90
6609;DHT22;61468;48.79282455;9.06262200;2022-07-23T08:11:29;25.30;99.90
6609;DHT22;61468;48.79282455;9.06262200;2022-07-23T08:14:14;25.40;99.90
6609;DHT22;61468;48.79282455;9.06262200;2022-07-23T08:16:59;25.40;99.90
6609;DHT22;61468;48.79282455;9.06262200;2022-07-23T08:19:43;25.60;99.90
6609;DHT22;61468;48.79282455;9.06262200;2022-07-23T08:25:35;25.60;99.90
6609;DHT22;61468;48.79282455;9.06262200;2022-07-23T08:28:19;25.70;99.90
6609;DHT22;61468;48.79282455;9.06262200;2022-07-23T08:31:03;25.80;99.90
6609;DHT22;61468;48.79282455;9.06262200;2022-07-23T08:33:49;25.80;83.50
6609;DHT22;61468;48.79282455;9.06262200;2022-07-23T08:36:33;25.80;60.60
6609;DHT22;61468;48.79282455;9.06262200;2022-07-23T08:39:17;25.90;48.50
6609;DHT22;61468;48.79282455;9.06262200;2022-07-23T08:42:01;26.00;47.40
6609;DHT22;61468;48.79282455;9.06262200;2022-07-23T08:44:46;26.10;43.80
6609;DHT22;61468;48.79282455;9.06262200;2022-07-23T08:47:31;26.10;35.60
6609;DHT22;61468;48.79282455;9.06262200;2022-07-23T08:50:15;26.10;32.80
6609;DHT22;61468;48.79282455;9.06262200;2022-07-23T08:53:00;26.00;34.90
6609;DHT22;61468;48.79282455;9.06262200;2022-07-23T08:55:46;26.00;20.70
6609;DHT22;61468;48.79282455;9.06262200;2022-07-23T08:58:31;26.10;29.50
6609;DHT22;61468;48.79282455;9.06262200;2022-07-23T09:01:16;26.20;18.00
6609;DHT22;61468;48.79282455;9.06262200;2022-07-23T09:04:01;26.20;14.00
6609;DHT22;61468;48.79282455;9.06262200;2022-07-23T09:06:45;26.30;7.20
6609;DHT22;61468;48.79282455;9.06262200;2022-07-23T09:09:30;26.40;3.10
6609;DHT22;61468;48.79282455;9.06262200;2022-07-23T09:12:15;26.30;1.00
6609;DHT22;61468;48.79282455;9.06262200;2022-07-23T09:15:04;26.20;1.00
6609;DHT22;61468;48.79282455;9.06262200;2022-07-23T09:17:49;26.20;1.00
6609;DHT22;61468;48.79282455;9.06262200;2022-07-23T09:20:33;26.20;1.00
6609;DHT22;61468;48.79282455;9.06262200;2022-07-23T09:23:17;26.10;1.00
6609;DHT22;61468;48.79282455;9.06262200;2022-07-23T09:26:02;26.10;1.00
6609;DHT22;61468;48.79282455;9.06262200;2022-07-23T09:29:03;26.10;1.00
6609;DHT22;61468;48.79282455;9.06262200;2022-07-23T09:31:52;26.10;1.00
6609;DHT22;61468;48.79282455;9.06262200;2022-07-23T09:34:37;26.10;1.00
6609;DHT22;61468;48.79282455;9.06262200;2022-07-23T09:37:24;26.10;1.00
6609;DHT22;61468;48.79282455;9.06262200;2022-07-23T09:40:09;26.10;1.00
6609;DHT22;61468;48.79282455;9.06262200;2022-07-23T09:42:57;26.10;1.00
6609;DHT22;61468;48.79282455;9.06262200;2022-07-23T09:45:41;26.10;1.00
6609;DHT22;61468;48.79282455;9.06262200;2022-07-23T09:48:25;26.00;1.00
6609;DHT22;61468;48.79282455;9.06262200;2022-07-23T09:51:10;26.10;1.00
6609;DHT22;61468;48.79282455;9.06262200;2022-07-23T09:53:55;26.20;1.00
6609;DHT22;61468;48.79282455;9.06262200;2022-07-23T09:56:39;26.20;1.00
6609;DHT22;61468;48.79282455;9.06262200;2022-07-23T09:59:29;25.90;1.00
6609;DHT22;61468;48.79282455;9.06262200;2022-07-23T10:02:14;25.80;1.00
6609;DHT22;61468;48.79282455;9.06262200;2022-07-23T10:05:01;25.80;1.00
6609;DHT22;61468;48.79282455;9.06262200;2022-07-23T10:07:46;25.90;1.00
6609;DHT22;61468;48.79282455;9.06262200;2022-07-23T10:10:31;25.60;1.00
6609;DHT22;61468;48.79282455;9.06262200;2022-07-23T10:13:16;25.70;1.00
6609;DHT22;61468;48.79282455;9.06262200;2022-07-23T10:16:19;26.00;1.00
6609;DHT22;61468;48.79282455;9.06262200;2022-07-23T10:19:04;25.90;1.00
6609;DHT22;61468;48.79282455;9.06262200;2022-07-23T10:21:50;26.10;1.00
6609;DHT22;61468;48.79282455;9.06262200;2022-07-23T10:31:02;26.00;1.00
6609;DHT22;61468;48.79282455;9.06262200;2022-07-23T10:34:19;26.10;1.00
6609;DHT22;61468;48.79282455;9.06262200;2022-07-23T10:37:23;26.10;1.00
6609;DHT22;61468;48.79282455;9.06262200;2022-07-23T10:40:18;26.10;1.00
6609;DHT22;61468;48.79282455;9.06262200;2022-07-23T10:43:13;26.20;1.00
6609;DHT22;61468;48.79282455;9.06262200;2022-07-23T10:46:24;26.30;1.00
6609;DHT22;61468;48.79282455;9.06262200;2022-07-23T10:49:30;26.30;1.00
6609;DHT22;61468;48.79282455;9.06262200;2022-07-23T10:57:50;26.50;1.00
6609;DHT22;61468;48.79282455;9.06262200;2022-07-23T11:00:35;26.60;1.00
6609;DHT22;61468;48.79282455;9.06262200;2022-07-23T11:03:31;26.50;1.00
6609;DHT22;61468;48.79282455;9.06262200;2022-07-23T11:06:17;26.50;1.00
6609;DHT22;61468;48.79282455;9.06262200;2022-07-23T11:09:27;26.40;1.00
6609;DHT22;61468;48.79282455;9.06262200;2022-07-23T11:15:13;26.30;1.00
6609;DHT22;61468;48.79282455;9.06262200;2022-07-23T11:18:00;26.20;1.00
6609;DHT22;61468;48.79282455;9.06262200;2022-07-23T11:20:44;26.30;1.00
6609;DHT22;61468;48.79282455;9.06262200;2022-07-23T11:26:53;26.50;1.00
6609;DHT22;61468;48.79282455;9.06262200;2022-07-23T11:29:38;26.50;1.00
6609;DHT22;61468;48.79282455;9.06262200;2022-07-23T11:32:25;26.50;1.00
6609;DHT22;61468;48.79282455;9.06262200;2022-07-23T11:35:28;26.50;1.00
6609;DHT22;61468;48.79282455;9.06262200;2022-07-23T11:38:21;26.40;1.00
6609;DHT22;61468;48.79282455;9.06262200;2022-07-23T11:41:05;26.20;1.00
6609;DHT22;61468;48.79282455;9.06262200;2022-07-23T11:43:51;26.30;1.00
6609;DHT22;61468;48.79282455;9.06262200;2022-07-23T11:46:35;26.40;1.00
6609;DHT22;61468;48.79282455;9.06262200;2022-07-23T11:49:19;26.40;1.00
6609;DHT22;61468;48.79282455;9.06262200;2022-07-23T11:52:14;26.40;1.00
6609;DHT22;61468;48.79282455;9.06262200;2022-07-23T11:55:04;26.40;1.00
6609;DHT22;61468;48.79282455;9.06262200;2022-07-23T11:57:51;26.50;1.00
6609;DHT22;61468;48.79282455;9.06262200;2022-07-23T12:00:40;26.60;1.00
6609;DHT22;61468;48.79282455;9.06262200;2022-07-23T12:03:24;26.70;1.00
6609;DHT22;61468;48.79282455;9.06262200;2022-07-23T12:06:08;26.80;1.00
6609;DHT22;61468;48.79282455;9.06262200;2022-07-23T12:08:52;26.80;1.00
6609;DHT22;61468;48.79282455;9.06262200;2022-07-23T12:11:37;26.80;1.00
6609;DHT22;61468;48.79282455;9.06262200;2022-07-23T12:14:20;26.80;1.00
6609;DHT22;61468;48.79282455;9.06262200;2022-07-23T12:17:11;26.80;1.00
6609;DHT22;61468;48.79282455;9.06262200;2022-07-23T12:19:57;26.70;1.00
6609;DHT22;61468;48.79282455;9.06262200;2022-07-23T12:22:51;26.60;1.00
6609;DHT22;61468;48.79282455;9.06262200;2022-07-23T12:25:40;26.50;1.00
6609;DHT22;61468;48.79282455;9.06262200;2022-07-23T12:28:30;26.70;1.00
6609;DHT22;61468;48.79282455;9.06262200;2022-07-23T12:31:14;26.60;1.00
6609;DHT22;61468;48.79282455;9.06262200;2022-07-23T12:33:58;26.70;1.00
6609;DHT22;61468;48.79282455;9.06262200;2022-07-23T12:36:43;26.80;1.00
6609;DHT22;61468;48.79282455;9.06262200;2022-07-23T12:39:31;26.80;1.00
6609;DHT22;61468;48.79282455;9.06262200;2022-07-23T12:42:16;26.70;1.00
6609;DHT22;61468;48.79282455;9.06262200;2022-07-23T12:45:07;26.60;1.00
6609;DHT22;61468;48.79282455;9.06262200;2022-07-23T12:48:04;26.70;1.00
6609;DHT22;61468;48.79282455;9.06262200;2022-07-23T12:51:01;26.70;1.00
6609;DHT22;61468;48.79282455;9.06262200;2022-07-23T12:53:51;26.70;1.00
6609;DHT22;61468;48.79282455;9.06262200;2022-07-23T12:56:43;26.90;1.00
6609;DHT22;61468;48.79282455;9.06262200;2022-07-23T12:59:30;27.00;1.00
6609;DHT22;61468;48.79282455;9.06262200;2022-07-23T13:02:15;26.80;1.00
6609;DHT22;61468;48.79282455;9.06262200;2022-07-23T13:04:59;26.80;1.00
6609;DHT22;61468;48.79282455;9.06262200;2022-07-23T13:07:43;26.80;1.00
6609;DHT22;61468;48.79282455;9.06262200;2022-07-23T13:10:27;27.00;1.00
6609;DHT22;61468;48.79282455;9.06262200;2022-07-23T13:13:11;26.90;1.00
6609;DHT22;61468;48.79282455;9.06262200;2022-07-23T13:15:55;26.90;1.00
6609;DHT22;61468;48.79282455;9.06262200;2022-07-23T13:18:39;26.90;1.00
6609;DHT22;61468;48.79282455;9.06262200;2022-07-23T13:21:24;27.00;1.00
6609;DHT22;61468;48.79282455;9.06262200;2022-07-23T13:24:09;27.10;1.00
6609;DHT22;61468;48.79282455;9.06262200;2022-07-23T13:26:54;27.10;1.00
6609;DHT22;61468;48.79282455;9.06262200;2022-07-23T13:29:39;27.20;1.00
6609;DHT22;61468;48.79282455;9.06262200;2022-07-23T13:32:23;27.20;1.00
6609;DHT22;61468;48.79282455;9.06262200;2022-07-23T13:35:07;27.10;1.00
6609;DHT22;61468;48.79282455;9.06262200;2022-07-23T13:37:51;27.00;1.00
6609;DHT22;61468;48.79282455;9.06262200;2022-07-23T13:40:41;27.00;1.00
6609;DHT22;61468;48.79282455;9.06262200;2022-07-23T13:43:26;27.10;1.00
6609;DHT22;61468;48.79282455;9.06262200;2022-07-23T13:46:10;27.30;1.00
6609;DHT22;61468;48.79282455;9.06262200;2022-07-23T13:48:54;27.20;1.00
6609;DHT22;61468;48.79282455;9.06262200;2022-07-23T13:51:38;27.20;1.00
6609;DHT22;61468;48.79282455;9.06262200;2022-07-23T13:54:22;27.30;1.00
6609;DHT22;61468;48.79282455;9.06262200;2022-07-23T13:57:06;27.30;1.00
6609;DHT22;61468;48.79282455;9.06262200;2022-07-23T13:59:51;27.30;1.00
6609;DHT22;61468;48.79282455;9.06262200;2022-07-23T14:02:36;27.40;1.00
6609;DHT22;61468;48.79282455;9.06262200;2022-07-23T14:05:21;27.50;1.00
6609;DHT22;61468;48.79282455;9.06262200;2022-07-23T14:08:05;27.50;1.00
6609;DHT22;61468;48.79282455;9.06262200;2022-07-23T14:10:49;27.60;1.00
6609;DHT22;61468;48.79282455;9.06262200;2022-07-23T14:13:33;27.70;1.00
6609;DHT22;61468;48.79282455;9.06262200;2022-07-23T14:16:17;27.80;1.00
6609;DHT22;61468;48.79282455;9.06262200;2022-07-23T14:19:01;27.80;1.00
6609;DHT22;61468;48.79282455;9.06262200;2022-07-23T14:21:46;27.70;1.00
6609;DHT22;61468;48.79282455;9.06262200;2022-07-23T14:24:32;27.70;1.00
6609;DHT22;61468;48.79282455;9.06262200;2022-07-23T14:27:16;27.80;1.00
6609;DHT22;61468;48.79282455;9.06262200;2022-07-23T14:30:01;28.00;1.00
6609;DHT22;61468;48.79282455;9.06262200;2022-07-23T14:32:45;27.90;1.00
6609;DHT22;61468;48.79282455;9.06262200;2022-07-23T14:35:29;27.90;1.00
6609;DHT22;61468;48.79282455;9.06262200;2022-07-23T14:38:13;27.90;1.00
6609;DHT22;61468;48.79282455;9.06262200;2022-07-23T14:40:58;27.80;1.00
6609;DHT22;61468;48.79282455;9.06262200;2022-07-23T14:43:42;27.90;1.00
6609;DHT22;61468;48.79282455;9.06262200;2022-07-23T14:46:27;27.90;1.00
6609;DHT22;61468;48.79282455;9.06262200;2022-07-23T14:49:11;27.90;1.00
6609;DHT22;61468;48.79282455;9.06262200;2022-07-23T14:51:55;28.10;1.00
6609;DHT22;61468;48.79282455;9.06262200;2022-07-23T14:54:40;28.00;1.00
6609;DHT22;61468;48.79282455;9.06262200;2022-07-23T14:57:24;27.90;1.00
6609;DHT22;61468;48.79282455;9.06262200;2022-07-23T15:00:09;27.80;1.00
6609;DHT22;61468;48.79282455;9.06262200;2022-07-23T15:02:53;27.80;1.00
6609;DHT22;61468;48.79282455;9.06262200;2022-07-23T15:05:37;27.80;1.00
6609;DHT22;61468;48.79282455;9.06262200;2022-07-23T15:08:21;27.80;1.00
6609;DHT22;61468;48.79282455;9.06262200;2022-07-23T15:11:05;27.80;1.00
6609;DHT22;61468;48.79282455;9.06262200;2022-07-23T15:13:53;27.80;1.00
6609;DHT22;61468;48.79282455;9.06262200;2022-07-23T15:16:37;27.80;1.00
6609;DHT22;61468;48.79282455;9.06262200;2022-07-23T15:19:21;27.90;1.00
6609;DHT22;61468;48.79282455;9.06262200;2022-07-23T15:22:05;28.20;1.00
6609;DHT22;61468;48.79282455;9.06262200;2022-07-23T15:24:49;28.20;1.00
6609;DHT22;61468;48.79282455;9.06262200;2022-07-23T15:27:33;28.20;1.00
6609;DHT22;61468;48.79282455;9.06262200;2022-07-23T15:30:17;28.30;1.00
6609;DHT22;61468;48.79282455;9.06262200;2022-07-23T15:33:01;28.30;1.00
6609;DHT22;61468;48.79282455;9.06262200;2022-07-23T15:35:45;28.20;1.00
6609;DHT22;61468;48.79282455;9.06262200;2022-07-23T15:38:29;28.30;1.00
6609;DHT22;61468;48.79282455;9.06262200;2022-07-23T15:41:13;28.30;1.00
6609;DHT22;61468;48.79282455;9.06262200;2022-07-23T15:43:58;28.30;1.00
6609;DHT22;61468;48.79282455;9.06262200;2022-07-23T15:46:42;28.40;1.00